createdAt,value
2018-09-13T00:00:40.794Z,4.30
2018-09-13T00:03:44.535Z,4.50
2018-09-13T00:06:48.133Z,5.53
2018-09-13T00:09:51.744Z,4.80
2018-09-13T00:12:55.328Z,5.17
2018-09-13T00:15:59.118Z,4.70
2018-09-13T00:19:02.712Z,5.30
2018-09-13T00:22:06.346Z,5.10
2018-09-13T00:25:09.970Z,5.70
2018-09-13T00:28:13.700Z,4.63
2018-09-13T00:31:17.343Z,4.93
2018-09-13T00:34:21.011Z,5.33
2018-09-13T00:37:24.709Z,5.73
2018-09-13T00:40:28.359Z,5.57
2018-09-13T00:43:32.016Z,5.43
2018-09-13T00:46:36.404Z,5.40
2018-09-13T00:49:40.660Z,6.10
2018-09-13T00:52:44.297Z,5.73
2018-09-13T00:55:47.886Z,5.80
2018-09-13T00:58:51.997Z,6.70
2018-09-13T01:01:55.690Z,6.23
2018-09-13T01:04:59.318Z,6.13
2018-09-13T01:08:03.219Z,5.43
2018-09-13T01:11:07.261Z,5.80
2018-09-13T01:14:10.899Z,6.80
2018-09-13T01:17:14.514Z,6.33
2018-09-13T01:20:18.224Z,6.47
2018-09-13T01:23:21.963Z,6.63
2018-09-13T01:26:25.634Z,5.70
2018-09-13T01:29:29.229Z,6.23
2018-09-13T01:32:32.857Z,6.30
2018-09-13T01:35:36.569Z,6.40
2018-09-13T01:38:40.227Z,7.00
2018-09-13T01:41:43.838Z,6.67
2018-09-13T01:44:47.574Z,5.97
2018-09-13T01:47:51.316Z,6.80
2018-09-13T01:50:55.012Z,6.50
2018-09-13T01:53:58.647Z,7.17
2018-09-13T01:57:02.396Z,7.47
2018-09-13T02:00:06.347Z,8.00
2018-09-13T02:03:10.151Z,5.70
2018-09-13T02:06:14.346Z,6.23
2018-09-13T02:09:17.991Z,5.90
2018-09-13T02:12:21.646Z,5.47
2018-09-13T02:15:25.306Z,5.10
2018-09-13T02:18:28.891Z,5.23
2018-09-13T02:21:32.572Z,4.70
2018-09-13T02:24:36.257Z,4.90
2018-09-13T02:27:39.855Z,4.40
2018-09-13T02:30:43.560Z,4.87
2018-09-13T02:33:47.478Z,4.53
2018-09-13T02:36:51.171Z,5.03
2018-09-13T02:39:54.835Z,4.77
2018-09-13T02:42:58.714Z,4.60
2018-09-13T02:46:02.375Z,4.80
2018-09-13T02:49:06.064Z,4.73
2018-09-13T02:52:09.771Z,4.50
2018-09-13T02:55:13.393Z,5.23
2018-09-13T02:58:17.149Z,5.33
2018-09-13T03:01:20.740Z,5.00
2018-09-13T03:04:24.421Z,5.07
2018-09-13T03:07:28.042Z,4.97
2018-09-13T03:10:31.616Z,5.23
2018-09-13T03:13:35.390Z,5.00
2018-09-13T03:16:39.115Z,5.37
2018-09-13T03:19:42.811Z,5.60
2018-09-13T03:22:46.479Z,5.33
2018-09-13T03:25:50.035Z,5.60
2018-09-13T03:28:53.809Z,4.90
2018-09-13T03:31:57.595Z,4.83
2018-09-13T03:35:01.212Z,5.43
2018-09-13T03:38:04.878Z,5.20
2018-09-13T03:41:08.710Z,4.97
2018-09-13T03:44:12.291Z,5.63
2018-09-13T03:47:15.975Z,4.93
2018-09-13T03:50:19.702Z,4.80
2018-09-13T03:53:23.361Z,4.83
2018-09-13T03:56:27.046Z,4.87
2018-09-13T03:59:30.640Z,5.00
2018-09-13T04:02:34.289Z,5.40
2018-09-13T04:05:37.998Z,4.77
2018-09-13T04:08:41.810Z,4.77
2018-09-13T04:11:45.414Z,4.40
2018-09-13T04:14:49.092Z,4.10
2018-09-13T04:17:52.718Z,4.90
2018-09-13T04:20:56.471Z,4.20
2018-09-13T04:24:00.257Z,4.63
2018-09-13T04:27:03.867Z,3.70
2018-09-13T04:30:07.854Z,4.27
2018-09-13T04:33:11.415Z,3.50
2018-09-13T04:36:15.397Z,4.03
2018-09-13T04:39:18.991Z,3.93
2018-09-13T04:42:22.549Z,4.10
2018-09-13T04:45:26.172Z,4.00
2018-09-13T04:48:30.022Z,4.00
2018-09-13T04:51:33.662Z,4.10
2018-09-13T04:54:37.378Z,3.97
2018-09-13T04:57:42.149Z,4.17
2018-09-13T05:00:45.683Z,4.47
2018-09-13T05:03:49.287Z,4.70
2018-09-13T05:06:52.974Z,5.03
2018-09-13T05:09:56.668Z,4.50
2018-09-13T05:13:00.373Z,5.20
2018-09-13T05:16:04.073Z,4.80
2018-09-13T05:19:07.660Z,4.70
2018-09-13T05:22:11.324Z,4.73
2018-09-13T05:25:15.048Z,4.53
2018-09-13T05:28:18.783Z,5.40
2018-09-13T05:31:22.614Z,4.77
2018-09-13T05:34:26.256Z,5.13
2018-09-13T05:37:29.887Z,5.20
2018-09-13T05:40:33.632Z,4.67
2018-09-13T05:43:37.213Z,4.57
2018-09-13T05:46:40.969Z,4.80
2018-09-13T05:49:44.652Z,4.30
2018-09-13T05:52:48.367Z,4.93
2018-09-13T05:55:52.038Z,3.90
2018-09-13T05:58:56.139Z,3.80
2018-09-13T06:01:59.750Z,3.77
2018-09-13T06:05:03.523Z,3.20
2018-09-13T06:08:07.187Z,2.70
2018-09-13T06:11:10.959Z,3.30
2018-09-13T06:14:14.613Z,2.73
2018-09-13T06:17:18.312Z,2.90
2018-09-13T06:20:21.988Z,3.10
2018-09-13T06:23:25.688Z,3.10
2018-09-13T06:26:29.343Z,3.60
2018-09-13T06:29:32.998Z,3.30
2018-09-13T06:32:36.675Z,3.30
2018-09-13T06:35:40.283Z,3.70
2018-09-13T06:38:43.943Z,3.43
2018-09-13T06:41:47.571Z,3.77
2018-09-13T06:44:51.235Z,3.43
2018-09-13T06:47:54.919Z,4.23
2018-09-13T06:50:59.689Z,3.97
2018-09-13T06:54:03.406Z,4.00
2018-09-13T06:57:06.973Z,4.03
2018-09-13T07:00:10.624Z,4.53
2018-09-13T07:03:14.238Z,4.30
2018-09-13T07:06:17.838Z,4.50
2018-09-13T07:09:21.369Z,4.20
2018-09-13T07:12:25.034Z,4.93
2018-09-13T07:15:35.883Z,5.23
2018-09-13T07:18:39.812Z,4.93
2018-09-13T07:21:43.505Z,5.57
2018-09-13T07:24:47.194Z,5.60
2018-09-13T07:27:50.821Z,5.20
2018-09-13T07:30:54.497Z,4.80
2018-09-13T07:33:57.985Z,5.30
2018-09-13T07:37:01.663Z,5.50
2018-09-13T07:40:05.463Z,5.70
2018-09-13T07:43:09.065Z,5.50
2018-09-13T07:46:12.699Z,5.70
2018-09-13T07:49:16.400Z,5.83
2018-09-13T07:52:19.966Z,6.03
2018-09-13T07:55:23.588Z,5.30
2018-09-13T07:58:27.328Z,4.53
2018-09-13T08:01:30.925Z,5.20
2018-09-13T08:04:34.568Z,5.30
2018-09-13T08:07:38.125Z,4.73
2018-09-13T08:10:41.803Z,5.20
2018-09-13T08:13:45.463Z,5.60
2018-09-13T08:16:49.100Z,5.80
2018-09-13T08:19:52.690Z,5.57
2018-09-13T08:22:56.293Z,5.80
2018-09-13T08:26:01.268Z,4.80
2018-09-13T08:29:05.014Z,5.77
2018-09-13T08:32:08.671Z,5.43
2018-09-13T08:35:12.441Z,5.50
2018-09-13T08:38:16.078Z,5.80
2018-09-13T08:41:19.720Z,6.80
2018-09-13T08:44:23.500Z,5.40
2018-09-13T08:47:27.494Z,5.90
2018-09-13T08:50:31.505Z,6.20
2018-09-13T08:53:35.252Z,6.77
2018-09-13T08:56:38.918Z,6.87
2018-09-13T08:59:42.649Z,6.50
2018-09-13T09:02:46.385Z,6.43
2018-09-13T09:05:50.725Z,6.97
2018-09-13T09:08:56.470Z,7.70
2018-09-13T09:12:00.270Z,7.40
2018-09-13T09:15:04.011Z,6.67
2018-09-13T09:18:07.921Z,5.73
2018-09-13T09:21:11.596Z,5.10
2018-09-13T09:24:15.160Z,4.40
2018-09-13T09:27:18.829Z,4.30
2018-09-13T09:30:23.338Z,3.90
2018-09-13T09:33:26.915Z,4.90
2018-09-13T09:36:30.550Z,4.73
2018-09-13T09:39:34.207Z,4.47
2018-09-13T09:42:37.984Z,4.70
2018-09-13T09:45:41.616Z,5.50
2018-09-13T09:48:45.290Z,5.40
2018-09-13T09:51:49.067Z,5.90
2018-09-13T09:54:52.825Z,5.50
2018-09-13T09:57:58.337Z,4.40
2018-09-13T10:01:07.224Z,5.13
2018-09-13T10:04:10.863Z,4.40
2018-09-13T10:07:14.592Z,4.40
2018-09-13T10:10:19.011Z,3.80
2018-09-13T10:13:22.675Z,3.47
2018-09-13T10:16:31.542Z,3.60
2018-09-13T10:19:40.426Z,3.87
2018-09-13T10:22:49.191Z,3.50
2018-09-13T10:25:58.256Z,3.57
2018-09-13T10:29:07.163Z,3.60
2018-09-13T10:32:15.932Z,3.53
2018-09-13T10:35:24.932Z,3.43
2018-09-13T10:38:33.841Z,3.23
2018-09-13T10:41:43.406Z,3.33
2018-09-13T10:44:52.341Z,3.30
2018-09-13T10:48:01.280Z,3.37
2018-09-13T10:51:11.091Z,3.40
2018-09-13T10:54:20.131Z,3.83
2018-09-13T10:57:29.120Z,3.57
2018-09-13T11:00:32.905Z,4.10
2018-09-13T11:03:36.665Z,3.50
2018-09-13T11:06:40.498Z,3.60
2018-09-13T11:09:44.143Z,3.30
2018-09-13T11:12:49.966Z,3.43
2018-09-13T11:15:53.633Z,3.53
2018-09-13T11:18:57.328Z,3.30
2018-09-13T11:22:01.096Z,3.17
2018-09-13T11:25:04.826Z,3.13
2018-09-13T11:28:09.462Z,3.30
2018-09-13T11:31:13.660Z,4.07
2018-09-13T11:34:17.487Z,3.67
2018-09-13T11:37:21.218Z,3.97
2018-09-13T11:40:25.197Z,3.93
2018-09-13T11:43:34.779Z,5.43
2018-09-13T11:46:38.486Z,3.30
2018-09-13T11:49:42.208Z,3.70
2018-09-13T11:52:45.876Z,3.40
2018-09-13T11:55:49.691Z,3.30
2018-09-13T11:58:53.562Z,3.97
2018-09-13T12:01:57.262Z,4.33
2018-09-13T12:05:01.652Z,3.73
2018-09-13T12:08:05.783Z,4.23
2018-09-13T12:11:09.507Z,3.60
2018-09-13T12:14:13.213Z,4.10
2018-09-13T12:17:17.067Z,3.70
2018-09-13T12:20:20.709Z,3.50
2018-09-13T12:23:24.361Z,3.77
2018-09-13T12:26:28.138Z,3.33
2018-09-13T12:29:31.951Z,3.20
2018-09-13T12:32:35.717Z,3.00
2018-09-13T12:35:39.466Z,3.10
2018-09-13T12:38:43.171Z,2.40
2018-09-13T12:41:46.813Z,3.00
2018-09-13T12:44:50.507Z,3.07
2018-09-13T12:47:54.258Z,3.60
2018-09-13T12:50:57.837Z,3.00
2018-09-13T12:54:01.701Z,2.87
2018-09-13T12:57:05.696Z,3.70
2018-09-13T13:00:09.427Z,3.20
2018-09-13T13:03:13.319Z,3.77
2018-09-13T13:06:16.946Z,3.00
2018-09-13T13:09:20.606Z,3.20
2018-09-13T13:12:24.338Z,2.70
2018-09-13T13:15:27.973Z,3.37
2018-09-13T13:18:31.720Z,3.00
2018-09-13T13:21:35.639Z,2.80
2018-09-13T13:24:39.374Z,3.00
2018-09-13T13:27:43.233Z,3.10
2018-09-13T13:30:46.927Z,3.60
2018-09-13T13:33:51.055Z,2.90
2018-09-13T13:36:55.967Z,3.63
2018-09-13T13:40:00.393Z,3.43
2018-09-13T13:43:04.142Z,3.37
2018-09-13T13:46:07.843Z,3.17
2018-09-13T13:49:11.535Z,3.03
2018-09-13T13:52:15.154Z,3.40
2018-09-13T13:55:18.815Z,3.57
2018-09-13T13:58:22.496Z,3.30
2018-09-13T14:01:26.301Z,4.13
2018-09-13T14:04:29.940Z,4.17
2018-09-13T14:07:33.640Z,3.37
2018-09-13T14:10:37.285Z,4.20
2018-09-13T14:13:41.072Z,3.83
2018-09-13T14:16:44.741Z,4.03
2018-09-13T14:19:48.367Z,4.60
2018-09-13T14:22:52.105Z,4.33
2018-09-13T14:25:55.816Z,4.20
2018-09-13T14:28:59.506Z,4.73
2018-09-13T14:32:03.134Z,4.53
2018-09-13T14:35:06.904Z,4.27
2018-09-13T14:38:10.634Z,4.30
2018-09-13T14:41:14.358Z,4.27
2018-09-13T14:44:18.082Z,4.00
2018-09-13T14:47:21.670Z,3.97
2018-09-13T14:50:25.305Z,3.60
2018-09-13T14:53:29.051Z,3.40
2018-09-13T14:56:32.821Z,3.60
2018-09-13T14:59:36.508Z,3.80
2018-09-13T15:02:40.240Z,4.23
2018-09-13T15:05:43.800Z,4.90
2018-09-13T15:08:47.610Z,5.07
2018-09-13T15:11:51.336Z,4.40
2018-09-13T15:14:55.043Z,4.60
2018-09-13T15:17:58.708Z,4.40
2018-09-13T15:21:02.336Z,4.30
2018-09-13T15:24:06.113Z,4.23
2018-09-13T15:27:09.760Z,5.57
2018-09-13T15:30:13.522Z,5.50
2018-09-13T15:33:17.169Z,5.20
2018-09-13T15:36:20.924Z,5.77
2018-09-13T15:39:24.581Z,5.40
2018-09-13T15:42:28.426Z,5.60
2018-09-13T15:45:32.183Z,5.83
2018-09-13T15:48:35.880Z,4.30
2018-09-13T15:51:39.569Z,3.80
2018-09-13T15:54:43.161Z,3.90
2018-09-13T15:57:46.856Z,3.73
2018-09-13T16:00:50.661Z,4.20
2018-09-13T16:03:54.353Z,3.93
2018-09-13T16:06:58.085Z,3.83
2018-09-13T16:10:01.703Z,3.73
2018-09-13T16:13:05.519Z,3.60
2018-09-13T16:16:09.431Z,4.80
2018-09-13T16:19:13.206Z,4.00
2018-09-13T16:22:17.255Z,4.50
2018-09-13T16:25:21.006Z,4.83
2018-09-13T16:28:24.704Z,5.00
2018-09-13T16:31:28.480Z,6.10
2018-09-13T16:34:32.282Z,5.20
2018-09-13T16:37:41.109Z,5.30
2018-09-13T16:40:50.211Z,5.23
2018-09-13T16:44:01.344Z,4.73
2018-09-13T16:47:10.403Z,5.03
2018-09-13T16:50:14.141Z,5.30
2018-09-13T16:53:17.840Z,5.37
2018-09-13T16:56:21.719Z,4.87
2018-09-13T16:59:25.472Z,4.73
2018-09-13T17:02:29.186Z,5.00
2018-09-13T17:05:32.957Z,4.53
2018-09-13T17:08:36.800Z,4.63
2018-09-13T17:11:40.445Z,4.20
2018-09-13T17:14:44.437Z,4.90
2018-09-13T17:17:48.055Z,4.60
2018-09-13T17:20:51.725Z,5.13
2018-09-13T17:23:55.339Z,4.43
2018-09-13T17:26:59.255Z,4.33
2018-09-13T17:30:03.029Z,4.70
2018-09-13T17:33:13.436Z,4.80
2018-09-13T17:36:17.117Z,4.80
2018-09-13T17:39:20.875Z,4.70
2018-09-13T17:42:24.646Z,4.50
2018-09-13T17:45:28.526Z,4.40
2018-09-13T17:48:32.209Z,4.23
2018-09-13T17:51:35.962Z,4.20
2018-09-13T17:54:39.620Z,4.30
2018-09-13T17:57:43.380Z,4.30
2018-09-13T18:00:47.005Z,4.60
2018-09-13T18:03:50.845Z,5.13
2018-09-13T18:06:54.667Z,5.40
2018-09-13T18:10:05.420Z,5.60
2018-09-13T18:13:09.274Z,6.30
2018-09-13T18:16:13.004Z,5.70
2018-09-13T18:19:16.838Z,5.50
2018-09-13T18:22:20.791Z,5.17
2018-09-13T18:25:24.515Z,5.60
2018-09-13T18:28:28.381Z,6.53
2018-09-13T18:31:32.064Z,7.30
2018-09-13T18:34:35.786Z,8.07
2018-09-13T18:37:39.443Z,7.47
2018-09-13T18:40:43.196Z,7.43
2018-09-13T18:43:46.998Z,7.70
2018-09-13T18:46:50.757Z,7.83
2018-09-13T18:49:54.526Z,8.93
2018-09-13T18:52:58.213Z,7.93
2018-09-13T18:56:02.029Z,7.53
2018-09-13T18:59:05.774Z,8.60
2018-09-13T19:02:09.675Z,7.93
2018-09-13T19:05:14.152Z,9.00
2018-09-13T19:08:17.917Z,7.60
2018-09-13T19:11:21.908Z,8.20
2018-09-13T19:14:25.662Z,7.70
2018-09-13T19:17:29.457Z,8.50
2018-09-13T19:20:33.233Z,7.73
2018-09-13T19:23:36.977Z,7.57
2018-09-13T19:26:40.928Z,8.37
2018-09-13T19:29:45.091Z,8.17
2018-09-13T19:32:48.902Z,7.97
2018-09-13T19:35:53.058Z,8.97
2018-09-13T19:38:57.451Z,7.87
2018-09-13T19:42:03.238Z,8.40
2018-09-13T19:45:16.808Z,9.40
2018-09-13T19:48:21.630Z,8.40
2018-09-13T19:51:27.206Z,8.13
2018-09-13T19:54:33.118Z,9.70
2018-09-13T19:57:37.025Z,9.60
2018-09-13T20:00:40.818Z,11.00
2018-09-13T20:03:44.607Z,10.40
2018-09-13T20:06:48.269Z,10.33
2018-09-13T20:09:52.511Z,11.13
2018-09-13T20:12:56.551Z,11.17
2018-09-13T20:16:00.530Z,10.83
2018-09-13T20:19:04.580Z,10.60
2018-09-13T20:22:09.256Z,10.70
2018-09-13T20:25:12.564Z,11.63
2018-09-13T20:28:16.402Z,12.77
2018-09-13T20:31:20.278Z,12.00
2018-09-13T20:34:24.083Z,11.90
2018-09-13T20:37:27.901Z,14.93
2018-09-13T20:40:40.478Z,11.37
2018-09-13T20:43:47.596Z,11.73
2018-09-13T20:46:51.473Z,11.33
2018-09-13T20:49:55.242Z,11.83
2018-09-13T20:52:59.012Z,11.60
2018-09-13T20:56:02.674Z,11.83
2018-09-13T20:59:06.497Z,11.40
2018-09-13T21:02:10.214Z,12.77
2018-09-13T21:05:14.803Z,13.80
2018-09-13T21:08:18.477Z,12.80
2018-09-13T21:11:22.149Z,11.70
2018-09-13T21:14:25.907Z,12.97
2018-09-13T21:17:29.729Z,13.10
2018-09-13T21:20:33.447Z,13.30
2018-09-13T21:23:37.175Z,13.30
2018-09-13T21:26:40.948Z,12.90
2018-09-13T21:29:44.634Z,12.93
2018-09-13T21:32:48.752Z,12.57
2018-09-13T21:35:52.396Z,12.43
2018-09-13T21:38:56.073Z,12.33
2018-09-13T21:41:59.903Z,12.33
2018-09-13T21:45:03.612Z,13.03
2018-09-13T21:48:07.379Z,14.13
2018-09-13T21:51:11.138Z,12.83
2018-09-13T21:54:14.897Z,12.10
2018-09-13T21:57:18.676Z,12.50
2018-09-13T22:00:22.451Z,14.03
2018-09-13T22:03:26.132Z,12.57
2018-09-13T22:06:29.773Z,14.30
2018-09-13T22:09:33.539Z,13.40
2018-09-13T22:12:37.314Z,14.57
2018-09-13T22:15:41.095Z,13.73
2018-09-13T22:18:44.789Z,17.07
2018-09-13T22:21:48.448Z,18.77
2018-09-13T22:24:52.157Z,19.30
2018-09-13T22:27:55.907Z,19.07
2018-09-13T22:30:59.643Z,18.10
2018-09-13T22:34:04.459Z,18.53
2018-09-13T22:37:08.464Z,17.13
2018-09-13T22:40:12.187Z,17.80
2018-09-13T22:43:15.832Z,17.30
2018-09-13T22:46:20.984Z,17.27
2018-09-13T22:49:24.633Z,16.87
2018-09-13T22:52:28.315Z,17.23
2018-09-13T22:55:31.919Z,17.40
2018-09-13T22:58:35.697Z,17.30
2018-09-13T23:01:39.289Z,17.83
2018-09-13T23:04:43.312Z,17.60
2018-09-13T23:07:47.063Z,18.10
2018-09-13T23:10:50.709Z,18.73
2018-09-13T23:14:00.798Z,17.83
2018-09-13T23:17:04.536Z,19.37
2018-09-13T23:20:08.283Z,18.20
2018-09-13T23:23:11.893Z,18.73
2018-09-13T23:26:15.516Z,17.17
2018-09-13T23:29:19.271Z,20.30
2018-09-13T23:32:22.901Z,20.50
2018-09-13T23:35:26.641Z,19.60
2018-09-13T23:38:30.327Z,20.27
2018-09-13T23:41:33.947Z,18.67
2018-09-13T23:44:37.672Z,20.80
2018-09-13T23:47:41.244Z,19.70
2018-09-13T23:50:44.908Z,21.20
2018-09-13T23:53:48.689Z,20.07
2018-09-13T23:56:52.371Z,22.37
2018-09-13T23:59:56.049Z,21.40
